createdAt,value
2022-11-20T00:00:28.645Z,51.259647
2022-11-20T00:01:28.652Z,51.259716
2022-11-20T00:02:28.639Z,51.259659
2022-11-20T00:03:28.618Z,51.259640
2022-11-20T00:04:28.602Z,51.259594
2022-11-20T00:05:28.598Z,51.259644
2022-11-20T00:06:28.616Z,51.259544
2022-11-20T00:07:28.604Z,51.259430
2022-11-20T00:08:28.595Z,51.259228
2022-11-20T00:09:28.563Z,51.259331
2022-11-20T00:10:28.556Z,51.259346
2022-11-20T00:11:29.567Z,51.259350
2022-11-20T00:12:28.538Z,51.259384
2022-11-20T00:13:28.528Z,51.259422
2022-11-20T00:14:28.537Z,51.259407
2022-11-20T00:15:28.509Z,51.259495
2022-11-20T00:16:28.509Z,51.259598
2022-11-20T00:17:28.492Z,51.259850
2022-11-20T00:18:28.491Z,51.259674
2022-11-20T00:19:28.470Z,51.259754
2022-11-20T00:20:28.450Z,51.259594
2022-11-20T00:21:28.476Z,51.259602
2022-11-20T00:22:28.459Z,51.259567
2022-11-20T00:23:28.453Z,51.259460
2022-11-20T00:24:28.422Z,51.259647
2022-11-20T00:25:28.417Z,51.259686
2022-11-20T00:26:28.414Z,51.259579
2022-11-20T00:27:29.397Z,51.259560
2022-11-20T00:28:28.395Z,51.259449
2022-11-20T00:29:28.383Z,51.259548
2022-11-20T00:30:29.379Z,51.259579
2022-11-20T00:31:28.392Z,51.259666
2022-11-20T00:32:28.406Z,51.259586
2022-11-20T00:33:28.347Z,51.259617
2022-11-20T00:34:28.337Z,51.259617
2022-11-20T00:35:28.364Z,51.259563
2022-11-20T00:36:28.323Z,51.259563
2022-11-20T00:37:28.305Z,51.259518
2022-11-20T00:38:28.299Z,51.259739
2022-11-20T00:39:28.294Z,51.259686
2022-11-20T00:40:28.281Z,51.259827
2022-11-20T00:41:28.296Z,51.259785
2022-11-20T00:42:28.264Z,51.259739
2022-11-20T00:43:28.280Z,51.259750
2022-11-20T00:44:28.238Z,51.259663
2022-11-20T00:45:28.243Z,51.259552
2022-11-20T00:46:28.253Z,51.259499
2022-11-20T00:47:28.221Z,51.259583
2022-11-20T00:48:28.218Z,51.259556
2022-11-20T00:49:28.204Z,51.259556
2022-11-20T00:50:28.219Z,51.259556
2022-11-20T00:51:28.207Z,51.259518
2022-11-20T00:52:28.170Z,51.259544
2022-11-20T00:53:28.174Z,51.259560
2022-11-20T00:54:28.159Z,51.259518
2022-11-20T00:55:28.162Z,51.259552
2022-11-20T00:56:28.159Z,51.259560
2022-11-20T00:57:28.132Z,51.259548
2022-11-20T00:58:28.135Z,51.259533
2022-11-20T00:59:28.117Z,51.259544
2022-11-20T01:00:28.098Z,51.259560
2022-11-20T01:01:28.150Z,51.259521
2022-11-20T01:02:28.091Z,51.259567
2022-11-20T01:03:28.084Z,51.259579
2022-11-20T01:04:28.103Z,51.259525
2022-11-20T01:05:28.065Z,51.259495
2022-11-20T01:06:28.069Z,51.259506
2022-11-20T01:07:28.081Z,51.259529
2022-11-20T01:08:28.059Z,51.259537
2022-11-20T01:09:28.025Z,51.259548
2022-11-20T01:10:28.019Z,51.259560
2022-11-20T01:11:28.020Z,51.259544
2022-11-20T01:12:28.064Z,51.259533
2022-11-20T01:13:27.987Z,51.259476
2022-11-20T01:14:27.978Z,51.259563
2022-11-20T01:15:27.962Z,51.259567
2022-11-20T01:16:27.980Z,51.259560
2022-11-20T01:17:27.949Z,51.259533
2022-11-20T01:18:27.949Z,51.259567
2022-11-20T01:19:27.932Z,51.259586
2022-11-20T01:20:27.912Z,51.259533
2022-11-20T01:21:28.926Z,51.259552
2022-11-20T01:22:27.909Z,51.259548
2022-11-20T01:23:27.893Z,51.259579
2022-11-20T01:24:27.888Z,51.259613
2022-11-20T01:25:27.874Z,51.259560
2022-11-20T01:26:27.885Z,51.259583
2022-11-20T01:27:27.852Z,51.259563
2022-11-20T01:28:27.854Z,51.259598
2022-11-20T01:29:27.834Z,51.259590
2022-11-20T01:30:27.820Z,51.259598
2022-11-20T01:31:27.842Z,51.259563
2022-11-20T01:32:27.815Z,51.259609
2022-11-20T01:33:27.802Z,51.259697
2022-11-20T01:34:27.790Z,51.259575
2022-11-20T01:35:27.784Z,51.259590
2022-11-20T01:36:27.800Z,51.259533
2022-11-20T01:37:27.783Z,51.259567
2022-11-20T01:38:27.750Z,51.259560
2022-11-20T01:39:27.751Z,51.259541
2022-11-20T01:40:27.739Z,51.259514
2022-11-20T01:41:27.782Z,51.259529
2022-11-20T01:42:27.717Z,51.259541
2022-11-20T01:43:27.707Z,51.259541
2022-11-20T01:44:27.698Z,51.259563
2022-11-20T01:45:27.696Z,51.259560
2022-11-20T01:46:27.791Z,51.259521
2022-11-20T01:47:27.686Z,51.259514
2022-11-20T01:48:27.659Z,51.259533
2022-11-20T01:49:27.655Z,51.259514
2022-11-20T01:50:27.640Z,51.259563
2022-11-20T01:51:27.628Z,51.259548
2022-11-20T01:52:27.644Z,51.259548
2022-11-20T01:53:27.659Z,51.259537
2022-11-20T01:54:27.598Z,51.259563
2022-11-20T01:55:27.647Z,51.259556
2022-11-20T01:56:27.588Z,51.259556
2022-11-20T01:57:27.652Z,51.259563
2022-11-20T01:58:27.567Z,51.259586
2022-11-20T01:59:27.554Z,51.259651
2022-11-20T02:00:27.564Z,51.259624
2022-11-20T02:01:27.576Z,51.259518
2022-11-20T02:02:28.547Z,51.259563
2022-11-20T02:03:27.534Z,51.259571
2022-11-20T02:04:27.514Z,51.259567
2022-11-20T02:05:27.504Z,51.259529
2022-11-20T02:06:27.483Z,51.259529
2022-11-20T02:07:27.563Z,51.259529
2022-11-20T02:08:27.473Z,51.259476
2022-11-20T02:09:27.461Z,51.259525
2022-11-20T02:10:27.450Z,51.259583
2022-11-20T02:11:27.439Z,51.259579
2022-11-20T02:12:27.452Z,51.259537
2022-11-20T02:13:27.418Z,51.259533
2022-11-20T02:14:27.420Z,51.259556
2022-11-20T02:15:30.221Z,51.259594
2022-11-20T02:16:28.395Z,51.259514
2022-11-20T02:17:27.426Z,51.259533
2022-11-20T02:18:27.368Z,51.259594
2022-11-20T02:19:27.361Z,51.259628
2022-11-20T02:20:27.358Z,51.259521
2022-11-20T02:21:27.348Z,51.259636
2022-11-20T02:22:27.358Z,51.259510
2022-11-20T02:23:27.336Z,51.259548
2022-11-20T02:24:27.322Z,51.259697
2022-11-20T02:25:27.305Z,51.259754
2022-11-20T02:26:27.293Z,51.259651
2022-11-20T02:27:27.313Z,51.259632
2022-11-20T02:28:27.280Z,51.259678
2022-11-20T02:29:27.279Z,51.259598
2022-11-20T02:30:27.254Z,51.259602
2022-11-20T02:31:27.256Z,51.259640
2022-11-20T02:32:27.294Z,51.259594
2022-11-20T02:33:27.239Z,51.259586
2022-11-20T02:34:27.229Z,51.259598
2022-11-20T02:35:27.219Z,51.259594
2022-11-20T02:36:27.208Z,51.259460
2022-11-20T02:37:28.220Z,51.259590
2022-11-20T02:38:27.181Z,51.259686
2022-11-20T02:39:27.184Z,51.259579
2022-11-20T02:40:27.174Z,51.259529
2022-11-20T02:41:27.159Z,51.259514
2022-11-20T02:42:27.164Z,51.259445
2022-11-20T02:43:27.168Z,51.259399
2022-11-20T02:44:27.136Z,51.259541
2022-11-20T02:45:27.131Z,51.259464
2022-11-20T02:46:27.117Z,51.259411
2022-11-20T02:47:27.124Z,51.259296
2022-11-20T02:48:30.123Z,51.259365
2022-11-20T02:49:28.091Z,51.259346
2022-11-20T02:50:27.074Z,51.259430
2022-11-20T02:51:27.075Z,51.259476
2022-11-20T02:52:27.081Z,51.259602
2022-11-20T02:53:27.055Z,51.259567
2022-11-20T02:54:27.037Z,51.259521
2022-11-20T02:55:27.036Z,51.259579
2022-11-20T02:56:27.044Z,51.259605
2022-11-20T02:57:27.039Z,51.259605
2022-11-20T02:58:26.999Z,51.259556
2022-11-20T02:59:27.007Z,51.259510
2022-11-20T03:00:26.998Z,51.259483
2022-11-20T03:01:27.015Z,51.259430
2022-11-20T03:02:26.982Z,51.259556
2022-11-20T03:03:26.967Z,51.259533
2022-11-20T03:04:26.959Z,51.259529
2022-11-20T03:05:26.948Z,51.259480
2022-11-20T03:06:26.940Z,51.259483
2022-11-20T03:07:26.952Z,51.259563
2022-11-20T03:08:26.907Z,51.259468
2022-11-20T03:09:27.902Z,51.259499
2022-11-20T03:10:26.902Z,51.259567
2022-11-20T03:11:26.883Z,51.259590
2022-11-20T03:12:26.898Z,51.259647
2022-11-20T03:13:26.872Z,51.259617
2022-11-20T03:14:26.859Z,51.259537
2022-11-20T03:15:26.852Z,51.259544
2022-11-20T03:16:26.845Z,51.259502
2022-11-20T03:17:26.848Z,51.259499
2022-11-20T03:18:26.826Z,51.259521
2022-11-20T03:19:26.832Z,51.259563
2022-11-20T03:20:26.801Z,51.259594
2022-11-20T03:21:26.794Z,51.259579
2022-11-20T03:22:26.802Z,51.259640
2022-11-20T03:23:26.776Z,51.259651
2022-11-20T03:24:26.767Z,51.259563
2022-11-20T03:25:26.753Z,51.259590
2022-11-20T03:26:26.733Z,51.259605
2022-11-20T03:27:26.763Z,51.259502
2022-11-20T03:28:26.726Z,51.259544
2022-11-20T03:29:26.720Z,51.259560
2022-11-20T03:30:30.507Z,51.259602
2022-11-20T03:31:26.708Z,51.259548
2022-11-20T03:32:26.712Z,51.259537
2022-11-20T03:33:26.680Z,51.259560
2022-11-20T03:34:26.676Z,51.259556
2022-11-20T03:35:26.667Z,51.259537
2022-11-20T03:36:26.652Z,51.259502
2022-11-20T03:37:26.664Z,51.259556
2022-11-20T03:38:26.643Z,51.259575
2022-11-20T03:39:26.661Z,51.259556
2022-11-20T03:40:26.610Z,51.259575
2022-11-20T03:41:26.650Z,51.259525
2022-11-20T03:42:26.616Z,51.259491
2022-11-20T03:43:26.598Z,51.259552
2022-11-20T03:44:26.576Z,51.259487
2022-11-20T03:45:26.582Z,51.259495
2022-11-20T03:46:26.550Z,51.259525
2022-11-20T03:47:26.562Z,51.259384
2022-11-20T03:48:26.537Z,51.259422
2022-11-20T03:49:26.526Z,51.259483
2022-11-20T03:50:26.520Z,51.259514
2022-11-20T03:51:26.516Z,51.259300
2022-11-20T03:52:26.523Z,51.259380
2022-11-20T03:53:26.500Z,51.259506
2022-11-20T03:54:26.503Z,51.259411
2022-11-20T03:55:26.475Z,51.259411
2022-11-20T03:56:26.468Z,51.259350
2022-11-20T03:57:26.468Z,51.259483
2022-11-20T03:58:26.436Z,51.259441
2022-11-20T03:59:26.438Z,51.259510
2022-11-20T04:00:26.426Z,51.259560
2022-11-20T04:01:26.465Z,51.259579
2022-11-20T04:02:26.417Z,51.259464
2022-11-20T04:03:26.402Z,51.259380
2022-11-20T04:04:26.384Z,51.259369
2022-11-20T04:05:26.423Z,51.259388
2022-11-20T04:06:26.383Z,51.259296
2022-11-20T04:07:26.481Z,51.259418
2022-11-20T04:08:26.340Z,51.259556
2022-11-20T04:09:27.342Z,51.259556
2022-11-20T04:10:26.319Z,51.259560
2022-11-20T04:11:26.327Z,51.259560
2022-11-20T04:12:26.340Z,51.259567
2022-11-20T04:13:26.336Z,51.259495
2022-11-20T04:14:26.286Z,51.259563
2022-11-20T04:15:26.286Z,51.259613
2022-11-20T04:16:26.275Z,51.259441
2022-11-20T04:17:26.303Z,51.259552
2022-11-20T04:18:26.254Z,51.259518
2022-11-20T04:19:26.268Z,51.259472
2022-11-20T04:20:26.242Z,51.259457
2022-11-20T04:21:26.235Z,51.259487
2022-11-20T04:22:26.236Z,51.259483
2022-11-20T04:23:28.843Z,51.259563
2022-11-20T04:24:27.209Z,51.259506
2022-11-20T04:25:26.199Z,51.259502
2022-11-20T04:26:26.190Z,51.259499
2022-11-20T04:27:26.204Z,51.259571
2022-11-20T04:28:26.164Z,51.259502
2022-11-20T04:29:26.149Z,51.259529
2022-11-20T04:30:26.149Z,51.259418
2022-11-20T04:31:26.140Z,51.259621
2022-11-20T04:32:26.150Z,51.259495
2022-11-20T04:33:27.946Z,51.259567
2022-11-20T04:34:26.115Z,51.259510
2022-11-20T04:35:26.107Z,51.259422
2022-11-20T04:36:26.102Z,51.259529
2022-11-20T04:37:26.129Z,51.259632
2022-11-20T04:38:26.069Z,51.259598
2022-11-20T04:39:26.069Z,51.259621
2022-11-20T04:40:26.060Z,51.259487
2022-11-20T04:41:26.040Z,51.259560
2022-11-20T04:42:26.071Z,51.259521
2022-11-20T04:43:26.033Z,51.259541
2022-11-20T04:44:26.020Z,51.259487
2022-11-20T04:45:26.008Z,51.259460
2022-11-20T04:46:26.016Z,51.259594
2022-11-20T04:47:26.006Z,51.259499
2022-11-20T04:48:25.984Z,51.259525
2022-11-20T04:49:25.993Z,51.259514
2022-11-20T04:50:25.967Z,51.259445
2022-11-20T04:51:25.953Z,51.259510
2022-11-20T04:52:25.972Z,51.259560
2022-11-20T04:53:25.944Z,51.259495
2022-11-20T04:54:25.928Z,51.259571
2022-11-20T04:55:25.921Z,51.259544
2022-11-20T04:56:25.905Z,51.259571
2022-11-20T04:57:25.915Z,51.259644
2022-11-20T04:58:25.891Z,51.259594
2022-11-20T04:59:25.882Z,51.259544
2022-11-20T05:00:25.876Z,51.259495
2022-11-20T05:01:25.917Z,51.259548
2022-11-20T05:02:25.872Z,51.259483
2022-11-20T05:03:25.846Z,51.259506
2022-11-20T05:04:25.831Z,51.259495
2022-11-20T05:05:25.819Z,51.259464
2022-11-20T05:06:25.814Z,51.259457
2022-11-20T05:07:25.834Z,51.259453
2022-11-20T05:08:25.830Z,51.259521
2022-11-20T05:09:25.790Z,51.259544
2022-11-20T05:10:25.786Z,51.259609
2022-11-20T05:11:25.829Z,51.259548
2022-11-20T05:12:25.759Z,51.259499
2022-11-20T05:13:25.776Z,51.259533
2022-11-20T05:14:25.750Z,51.259518
2022-11-20T05:15:25.723Z,51.259533
2022-11-20T05:16:26.728Z,51.259579
2022-11-20T05:17:25.715Z,51.259552
2022-11-20T05:18:25.730Z,51.259537
2022-11-20T05:19:25.693Z,51.259499
2022-11-20T05:20:25.694Z,51.259556
2022-11-20T05:21:25.666Z,51.259449
2022-11-20T05:22:25.668Z,51.259430
2022-11-20T05:23:25.674Z,51.259487
2022-11-20T05:24:25.632Z,51.259560
2022-11-20T05:25:25.639Z,51.259632
2022-11-20T05:26:25.628Z,51.259510
2022-11-20T05:27:25.614Z,51.259560
2022-11-20T05:28:25.626Z,51.259655
2022-11-20T05:29:25.602Z,51.259449
2022-11-20T05:30:25.597Z,51.259422
2022-11-20T05:31:27.933Z,51.259453
2022-11-20T05:32:26.568Z,51.259525
2022-11-20T05:33:25.587Z,51.259300
2022-11-20T05:34:25.553Z,51.259396
2022-11-20T05:35:25.552Z,51.259441
2022-11-20T05:36:25.539Z,51.259525
2022-11-20T05:37:25.540Z,51.259438
2022-11-20T05:38:25.555Z,51.259548
2022-11-20T05:39:25.516Z,51.259521
2022-11-20T05:40:25.501Z,51.259277
2022-11-20T05:41:25.497Z,51.259335
2022-11-20T05:42:25.485Z,51.259426
2022-11-20T05:43:25.503Z,51.259586
2022-11-20T05:44:25.471Z,51.259396
2022-11-20T05:45:25.463Z,51.259377
2022-11-20T05:46:28.664Z,51.259529
2022-11-20T05:47:37.476Z,51.259537
2022-11-20T05:48:25.451Z,51.259472
2022-11-20T05:49:25.427Z,51.259365
2022-11-20T05:50:25.421Z,51.259674
2022-11-20T05:51:25.405Z,51.259758
2022-11-20T05:52:25.404Z,51.259789
2022-11-20T05:53:27.632Z,51.259678
2022-11-20T05:54:26.375Z,51.259682
2022-11-20T05:55:25.361Z,51.259556
2022-11-20T05:56:25.353Z,51.259472
2022-11-20T05:57:25.354Z,51.259502
2022-11-20T05:58:25.394Z,51.259567
2022-11-20T05:59:25.326Z,51.259533
2022-11-20T06:00:25.328Z,51.259575
2022-11-20T06:01:25.315Z,51.259598
2022-11-20T06:02:25.339Z,51.259602
2022-11-20T06:03:25.334Z,51.259537
2022-11-20T06:04:25.288Z,51.259445
2022-11-20T06:05:25.280Z,51.259521
2022-11-20T06:06:25.257Z,51.259197
2022-11-20T06:07:25.286Z,51.259537
2022-11-20T06:08:25.269Z,51.259644
2022-11-20T06:09:25.240Z,51.259491
2022-11-20T06:10:25.229Z,51.259544
2022-11-20T06:11:25.218Z,51.259464
2022-11-20T06:12:25.209Z,51.259571
2022-11-20T06:13:25.234Z,51.259579
2022-11-20T06:14:25.197Z,51.259571
2022-11-20T06:15:25.188Z,51.259590
2022-11-20T06:16:25.183Z,51.259594
2022-11-20T06:17:25.178Z,51.259621
2022-11-20T06:18:25.181Z,51.259552
2022-11-20T06:19:25.142Z,51.259567
2022-11-20T06:20:25.138Z,51.259548
2022-11-20T06:21:25.132Z,51.259624
2022-11-20T06:22:25.134Z,51.259590
2022-11-20T06:23:25.162Z,51.259716
2022-11-20T06:24:25.108Z,51.259651
2022-11-20T06:25:25.089Z,51.259586
2022-11-20T06:26:25.089Z,51.259586
2022-11-20T06:27:25.082Z,51.259598
2022-11-20T06:28:25.091Z,51.259590
2022-11-20T06:29:28.873Z,51.259636
2022-11-20T06:30:27.049Z,51.259621
2022-11-20T06:31:25.043Z,51.259567
2022-11-20T06:32:25.034Z,51.259548
2022-11-20T06:33:25.040Z,51.259602
2022-11-20T06:34:25.015Z,51.259579
2022-11-20T06:35:25.008Z,51.259613
2022-11-20T06:36:24.997Z,51.259647
2022-11-20T06:37:24.989Z,51.259521
2022-11-20T06:38:25.003Z,51.259636
2022-11-20T06:39:25.093Z,51.259571
2022-11-20T06:40:24.964Z,51.259617
2022-11-20T06:41:24.957Z,51.259640
2022-11-20T06:42:24.954Z,51.259556
2022-11-20T06:43:24.962Z,51.259525
2022-11-20T06:44:24.925Z,51.259502
2022-11-20T06:45:24.919Z,51.259529
2022-11-20T06:46:24.911Z,51.259510
2022-11-20T06:47:24.894Z,51.259460
2022-11-20T06:48:24.914Z,51.259445
2022-11-20T06:49:25.229Z,51.259491
2022-11-20T06:50:24.879Z,51.259533
2022-11-20T06:51:24.859Z,51.259579
2022-11-20T06:52:24.861Z,51.259506
2022-11-20T06:53:24.873Z,51.259594
2022-11-20T06:54:24.847Z,51.259571
2022-11-20T06:55:24.817Z,51.259628
2022-11-20T06:56:24.829Z,51.259567
2022-11-20T06:57:24.820Z,51.259602
2022-11-20T06:58:24.825Z,51.259674
2022-11-20T06:59:24.859Z,51.259563
2022-11-20T07:00:24.790Z,51.259495
2022-11-20T07:01:24.832Z,51.259640
2022-11-20T07:02:24.769Z,51.259563
2022-11-20T07:03:24.775Z,51.259544
2022-11-20T07:04:24.768Z,51.259586
2022-11-20T07:05:24.749Z,51.259537
2022-11-20T07:06:24.742Z,51.259556
2022-11-20T07:07:24.773Z,51.259632
2022-11-20T07:08:24.738Z,51.259617
2022-11-20T07:09:25.131Z,51.259624
2022-11-20T07:10:24.707Z,51.259712
2022-11-20T07:11:24.695Z,51.259586
2022-11-20T07:12:24.721Z,51.259602
2022-11-20T07:13:24.700Z,51.259510
2022-11-20T07:14:24.669Z,51.259560
2022-11-20T07:15:24.654Z,51.259609
2022-11-20T07:16:24.655Z,51.259544
2022-11-20T07:17:24.649Z,51.259651
2022-11-20T07:18:24.656Z,51.259640
2022-11-20T07:19:24.614Z,51.259609
2022-11-20T07:20:24.618Z,51.259579
2022-11-20T07:21:24.609Z,51.259571
2022-11-20T07:22:24.601Z,51.259514
2022-11-20T07:23:24.603Z,51.259602
2022-11-20T07:24:24.595Z,51.259571
2022-11-20T07:25:24.575Z,51.259567
2022-11-20T07:26:24.578Z,51.259537
2022-11-20T07:27:24.559Z,51.259579
2022-11-20T07:28:24.567Z,51.259518
2022-11-20T07:29:24.540Z,51.259525
2022-11-20T07:30:24.525Z,51.259586
2022-11-20T07:31:24.516Z,51.259663
2022-11-20T07:32:24.511Z,51.259594
2022-11-20T07:33:24.531Z,51.259575
2022-11-20T07:34:24.501Z,51.259560
2022-11-20T07:35:24.482Z,51.259537
2022-11-20T07:36:24.483Z,51.259537
2022-11-20T07:37:24.478Z,51.259518
2022-11-20T07:38:24.493Z,51.259510
2022-11-20T07:39:24.448Z,51.259514
2022-11-20T07:40:24.449Z,51.259529
2022-11-20T07:41:24.441Z,51.259537
2022-11-20T07:42:24.428Z,51.259552
2022-11-20T07:43:24.436Z,51.259514
2022-11-20T07:44:24.423Z,51.259502
2022-11-20T07:45:24.410Z,51.259552
2022-11-20T07:46:24.401Z,51.259525
2022-11-20T07:47:24.403Z,51.259590
2022-11-20T07:48:24.400Z,51.259548
2022-11-20T07:49:24.535Z,51.259544
2022-11-20T07:50:25.365Z,51.259525
2022-11-20T07:51:24.355Z,51.259521
2022-11-20T07:52:24.344Z,51.259552
2022-11-20T07:53:24.374Z,51.259583
2022-11-20T07:54:24.325Z,51.259537
2022-11-20T07:55:24.314Z,51.259518
2022-11-20T07:56:24.311Z,51.259537
2022-11-20T07:57:28.168Z,51.259552
2022-11-20T07:58:25.320Z,51.259518
2022-11-20T07:59:24.481Z,51.259525
2022-11-20T08:00:24.283Z,51.259502
2022-11-20T08:01:24.289Z,51.259563
2022-11-20T08:02:24.267Z,51.259499
2022-11-20T08:03:25.208Z,51.259445
2022-11-20T08:04:25.261Z,51.259491
2022-11-20T08:05:24.222Z,51.259537
2022-11-20T08:06:24.226Z,51.259548
2022-11-20T08:07:24.245Z,51.259510
2022-11-20T08:08:24.211Z,51.259544
2022-11-20T08:09:24.218Z,51.259521
2022-11-20T08:10:24.207Z,51.259499
2022-11-20T08:11:24.175Z,51.259537
2022-11-20T08:12:24.167Z,51.259613
2022-11-20T08:13:24.166Z,51.259506
2022-11-20T08:14:24.201Z,51.259663
2022-11-20T08:15:24.147Z,51.259590
2022-11-20T08:16:24.148Z,51.259491
2022-11-20T08:17:24.134Z,51.259563
2022-11-20T08:18:31.114Z,51.259583
2022-11-20T08:19:26.123Z,51.259556
2022-11-20T08:20:24.198Z,51.259594
2022-11-20T08:21:24.092Z,51.259518
2022-11-20T08:22:24.080Z,51.259560
2022-11-20T08:23:24.075Z,51.259525
2022-11-20T08:24:24.093Z,51.259556
2022-11-20T08:25:24.059Z,51.259529
2022-11-20T08:26:24.045Z,51.259525
2022-11-20T08:27:24.023Z,51.259480
2022-11-20T08:28:24.045Z,51.259472
2022-11-20T08:29:24.357Z,51.259518
2022-11-20T08:30:24.064Z,51.259426
2022-11-20T08:31:23.998Z,51.259426
2022-11-20T08:32:23.994Z,51.259480
2022-11-20T08:33:23.980Z,51.259510
2022-11-20T08:34:23.991Z,51.259556
2022-11-20T08:35:23.953Z,51.259560
2022-11-20T08:36:23.951Z,51.259544
2022-11-20T08:37:23.947Z,51.259605
2022-11-20T08:38:23.975Z,51.259518
2022-11-20T08:39:24.263Z,51.259583
2022-11-20T08:40:23.959Z,51.259502
2022-11-20T08:41:23.897Z,51.259533
2022-11-20T08:42:23.899Z,51.259514
2022-11-20T08:43:23.877Z,51.259552
2022-11-20T08:44:23.902Z,51.259621
2022-11-20T08:45:23.873Z,51.259541
2022-11-20T08:46:23.869Z,51.259502
2022-11-20T08:47:23.858Z,51.259541
2022-11-20T08:48:23.911Z,51.259438
2022-11-20T08:49:24.169Z,51.259510
2022-11-20T08:50:23.949Z,51.259518
2022-11-20T08:51:23.823Z,51.259514
2022-11-20T08:52:23.815Z,51.259586
2022-11-20T08:53:23.807Z,51.259533
2022-11-20T08:54:23.802Z,51.259453
2022-11-20T08:55:23.784Z,51.259445
2022-11-20T08:56:23.786Z,51.259541
2022-11-20T08:57:23.774Z,51.259529
2022-11-20T08:58:23.775Z,51.259480
2022-11-20T08:59:43.783Z,51.259487
2022-11-20T09:00:25.746Z,51.259613
2022-11-20T09:01:23.799Z,51.259567
2022-11-20T09:02:23.721Z,51.259621
2022-11-20T09:03:27.413Z,51.259487
2022-11-20T09:04:24.737Z,51.259319
2022-11-20T09:05:23.698Z,51.259563
2022-11-20T09:06:23.688Z,51.259602
2022-11-20T09:07:23.740Z,51.259766
2022-11-20T09:08:23.675Z,51.259911
2022-11-20T09:09:24.032Z,51.259815
2022-11-20T09:10:24.892Z,51.259609
2022-11-20T09:11:23.764Z,51.259617
2022-11-20T09:12:23.627Z,51.259598
2022-11-20T09:13:23.635Z,51.259350
2022-11-20T09:14:23.626Z,51.259266
2022-11-20T09:15:23.614Z,51.259281
2022-11-20T09:16:23.594Z,51.259346
2022-11-20T09:17:23.588Z,51.259373
2022-11-20T09:18:23.566Z,51.259296
2022-11-20T09:19:39.015Z,51.259296
2022-11-20T09:20:25.617Z,51.259312
2022-11-20T09:21:23.615Z,51.259262
2022-11-20T09:22:23.541Z,51.259552
2022-11-20T09:23:23.531Z,51.259548
2022-11-20T09:24:23.564Z,51.259460
2022-11-20T09:25:23.511Z,51.259472
2022-11-20T09:26:23.486Z,51.259468
2022-11-20T09:27:23.494Z,51.259415
2022-11-20T09:28:23.492Z,51.259476
2022-11-20T09:29:23.728Z,51.259476
2022-11-20T09:30:23.468Z,51.259438
2022-11-20T09:31:23.462Z,51.259483
2022-11-20T09:32:23.447Z,51.259357
2022-11-20T09:33:23.448Z,51.259434
2022-11-20T09:34:23.437Z,51.259399
2022-11-20T09:35:23.428Z,51.259502
2022-11-20T09:36:23.408Z,51.259544
2022-11-20T09:37:23.400Z,51.259544
2022-11-20T09:38:23.394Z,51.259537
2022-11-20T09:39:23.961Z,51.259460
2022-11-20T09:40:23.375Z,51.259487
2022-11-20T09:41:23.360Z,51.259571
2022-11-20T09:42:23.357Z,51.259560
2022-11-20T09:43:23.347Z,51.259506
2022-11-20T09:44:23.355Z,51.259403
2022-11-20T09:45:23.321Z,51.259460
2022-11-20T09:46:23.314Z,51.259480
2022-11-20T09:47:23.309Z,51.259418
2022-11-20T09:48:23.298Z,51.259430
2022-11-20T09:49:27.560Z,51.259449
2022-11-20T09:50:24.269Z,51.259453
2022-11-20T09:51:23.269Z,51.259495
2022-11-20T09:52:23.251Z,51.259396
2022-11-20T09:53:23.234Z,51.259460
2022-11-20T09:54:23.258Z,51.259480
2022-11-20T09:55:23.224Z,51.259502
2022-11-20T09:56:23.264Z,51.259407
2022-11-20T09:57:23.189Z,51.259533
2022-11-20T09:58:23.222Z,51.259525
2022-11-20T09:59:23.555Z,51.259506
2022-11-20T10:00:23.171Z,51.259499
2022-11-20T10:01:23.365Z,51.259476
2022-11-20T10:02:23.162Z,51.259464
2022-11-20T10:03:23.142Z,51.259476
2022-11-20T10:04:23.152Z,51.259491
2022-11-20T10:05:23.126Z,51.259548
2022-11-20T10:06:23.117Z,51.259567
2022-11-20T10:07:32.252Z,51.259525
2022-11-20T10:08:25.132Z,51.259468
2022-11-20T10:09:23.477Z,51.259453
2022-11-20T10:10:23.078Z,51.259430
2022-11-20T10:11:23.059Z,51.259487
2022-11-20T10:12:23.058Z,51.259533
2022-11-20T10:13:23.041Z,51.259521
2022-11-20T10:14:23.054Z,51.259537
2022-11-20T10:15:23.030Z,51.259525
2022-11-20T10:16:23.022Z,51.259468
2022-11-20T10:17:23.003Z,51.259468
2022-11-20T10:18:22.993Z,51.259491
2022-11-20T10:19:23.294Z,51.259502
2022-11-20T10:20:22.973Z,51.259521
2022-11-20T10:21:22.960Z,51.259453
2022-11-20T10:22:22.983Z,51.259422
2022-11-20T10:23:25.957Z,51.259529
2022-11-20T10:24:23.950Z,51.259602
2022-11-20T10:25:22.928Z,51.259487
2022-11-20T10:26:22.913Z,51.259476
2022-11-20T10:27:22.911Z,51.259491
2022-11-20T10:28:22.890Z,51.259548
2022-11-20T10:29:24.120Z,51.259541
2022-11-20T10:30:22.870Z,51.259506
2022-11-20T10:31:22.868Z,51.259533
2022-11-20T10:32:22.877Z,51.259548
2022-11-20T10:33:22.854Z,51.259583
2022-11-20T10:34:23.429Z,51.259472
2022-11-20T10:35:23.824Z,51.259548
2022-11-20T10:36:22.815Z,51.259487
2022-11-20T10:37:22.790Z,51.259533
2022-11-20T10:38:22.846Z,51.259510
2022-11-20T10:39:24.204Z,51.259563
2022-11-20T10:40:22.773Z,51.259521
2022-11-20T10:41:22.766Z,51.259571
2022-11-20T10:42:22.754Z,51.259472
2022-11-20T10:43:22.746Z,51.259579
2022-11-20T10:44:22.926Z,51.259594
2022-11-20T10:45:22.711Z,51.259560
2022-11-20T10:46:22.708Z,51.259590
2022-11-20T10:47:22.713Z,51.259590
2022-11-20T10:48:22.695Z,51.259563
2022-11-20T10:49:23.102Z,51.259579
2022-11-20T10:50:22.987Z,51.259422
2022-11-20T10:51:22.660Z,51.259563
2022-11-20T10:52:22.648Z,51.259506
2022-11-20T10:53:22.631Z,51.259544
2022-11-20T10:54:22.649Z,51.259567
2022-11-20T10:55:22.614Z,51.259563
2022-11-20T10:56:22.620Z,51.259518
2022-11-20T10:57:22.600Z,51.259567
2022-11-20T10:58:22.588Z,51.259624
2022-11-20T10:59:22.841Z,51.259613
2022-11-20T11:00:22.568Z,51.259590
2022-11-20T11:01:22.639Z,51.259613
2022-11-20T11:02:22.550Z,51.259583
2022-11-20T11:03:22.533Z,51.259605
2022-11-20T11:04:22.551Z,51.259575
2022-11-20T11:05:22.508Z,51.259552
2022-11-20T11:06:22.507Z,51.259521
2022-11-20T11:07:22.587Z,51.259525
2022-11-20T11:08:22.490Z,51.259518
2022-11-20T11:09:22.746Z,51.259525
2022-11-20T11:10:22.465Z,51.259495
2022-11-20T11:11:22.462Z,51.259495
2022-11-20T11:12:22.447Z,51.259525
2022-11-20T11:13:22.443Z,51.259567
2022-11-20T11:14:22.450Z,51.259521
2022-11-20T11:15:22.419Z,51.259541
2022-11-20T11:16:22.407Z,51.259563
2022-11-20T11:17:23.385Z,51.259499
2022-11-20T11:18:22.419Z,51.259411
2022-11-20T11:19:22.720Z,51.259472
2022-11-20T11:20:22.388Z,51.259518
2022-11-20T11:21:22.361Z,51.259460
2022-11-20T11:22:22.353Z,51.259613
2022-11-20T11:23:22.359Z,51.259689
2022-11-20T11:24:40.960Z,51.259579